Gildeskaal — LLDI — position and weather

sailwx.info

Track history (hours):
 
Tides and Currents Weather Stations Pressure Air Temp Water Temp Dewpoint Dewpoint Depression Visibility Wind Speed Wind Dir Waves Ship Positions

Gildeskaal

Last reported at 2018-Jan-20 13:00 UTC. Time now 2018-Jan-20 13:19 UTC.
Position N 67°04' E 014°04'.

Length 52 m; draft 3.2 m.

Type: Ship. MMSI: 259680000.

Date/timePositionNaut miles runAvg speedWind from/ knotsBaromVisibWave heightAir tempDewpointWater temp
2018-Jan-20 13:00N 67°04' E 014°04'0 0.0
2018-Jan-20 12:30N 67°04' E 014°04'0 0.0
2018-Jan-20 12:00N 67°04' E 014°04'0 0.0
2018-Jan-20 11:30N 67°04' E 014°04'0 0.8
2018-Jan-20 11:00N 67°05' E 014°04'3 5.0
2018-Jan-20 10:30N 67°06' E 013°59'2 3.8
2018-Jan-20 10:00N 67°08' E 013°59'0 0.0
2018-Jan-20 09:30N 67°08' E 013°59'0 0.0
2018-Jan-20 09:00N 67°08' E 013°59'2 3.1
2018-Jan-20 08:30N 67°07' E 013°59'3 5.9
2018-Jan-20 07:59N 67°04' E 014°04'1 2.1
2018-Jan-20 07:30N 67°05' E 014°02'3 6.7
2018-Jan-20 07:00N 67°08' E 013°59'0 0.1
2018-Jan-20 06:29N 67°08' E 013°59'0 0.0
2018-Jan-20 06:00N 67°08' E 013°59'0 0.0
2018-Jan-20 05:30N 67°08' E 013°59'0 0.0
2018-Jan-20 05:00N 67°08' E 013°59'0 0.0
2018-Jan-20 04:28N 67°08' E 013°59'0 0.0
2018-Jan-20 03:58N 67°08' E 013°59'0 0.0
2018-Jan-20 03:29N 67°08' E 013°59'0 0.0
2018-Jan-20 02:59N 67°08' E 013°59'0 0.0
2018-Jan-20 02:29N 67°08' E 013°59'0 0.0
2018-Jan-20 02:00N 67°08' E 013°59'0 0.0
2018-Jan-20 01:30N 67°08' E 013°59'0 0.0
2018-Jan-20 01:00N 67°08' E 013°59'0 0.0
2018-Jan-20 00:31N 67°08' E 013°59'0 0.0
2018-Jan-19 23:58N 67°08' E 013°59'0 0.0
2018-Jan-19 23:25N 67°08' E 013°59'0 0.0
2018-Jan-19 22:59N 67°08' E 013°59'0 0.0
2018-Jan-19 22:29N 67°08' E 013°59'0 0.0
2018-Jan-19 21:59N 67°08' E 013°59'0 0.0
2018-Jan-19 21:30N 67°08' E 013°59'0 0.0
2018-Jan-19 21:00N 67°08' E 013°59'0 0.0
2018-Jan-19 20:30N 67°08' E 013°59'3 7.2
2018-Jan-19 20:00N 67°05' E 014°02'1 1.4
2018-Jan-19 19:30N 67°05' E 014°03'2 4.9
2018-Jan-19 19:00N 67°07' E 013°59'1 1.0
2018-Jan-19 18:30N 67°06' E 013°59'3 5.4
2018-Jan-19 18:00N 67°04' E 014°04'0 0.0
2018-Jan-19 17:30N 67°04' E 014°04'0 0.0
2018-Jan-19 17:00N 67°04' E 014°04'2 4.6
2018-Jan-19 16:30N 67°06' E 013°59'3 5.1
2018-Jan-19 16:00N 67°08' E 013°59'3 6.6
2018-Jan-19 15:29N 67°05' E 014°02'1 2.1
2018-Jan-19 15:00N 67°04' E 014°04'1 2.1
2018-Jan-19 14:31N 67°05' E 014°02'3 6.6
2018-Jan-19 14:00N 67°08' E 013°59'0 0.2
2018-Jan-19 13:30N 67°08' E 013°59'0 0.0
2018-Jan-19 13:01N 67°08' E 013°59'0 0.0
2018-Jan-19 12:31N 67°08' E 013°59'0 0.0
2018-Jan-19 12:00N 67°08' E 013°59'3 6.7
2018-Jan-19 11:30N 67°05' E 014°01'1 1.9
2018-Jan-19 11:00N 67°05' E 014°04'3 5.1
2018-Jan-19 10:29N 67°06' E 013°59'2 3.8
2018-Jan-19 10:00N 67°08' E 013°59'0 0.0
2018-Jan-19 09:30N 67°08' E 013°59'0 0.0
2018-Jan-19 09:01N 67°08' E 013°59'1 2.9
2018-Jan-19 08:31N 67°07' E 013°59'3 6.2
2018-Jan-19 08:00N 67°04' E 014°04'0 0.0
2018-Jan-19 07:30N 67°04' E 014°04'0 0.0
2018-Jan-19 07:00N 67°04' E 014°04'1 2.1
2018-Jan-19 06:30N 67°05' E 014°02'3 6.7
2018-Jan-19 06:00N 67°08' E 013°59'0 0.2
2018-Jan-19 05:28N 67°08' E 013°59'0 0.0
2018-Jan-19 04:58N 67°08' E 013°59'0 0.0
2018-Jan-19 04:29N 67°08' E 013°59'0 0.0
2018-Jan-19 03:59N 67°08' E 013°59'0 0.0
2018-Jan-19 03:29N 67°08' E 013°59'0 0.0
2018-Jan-19 03:00N 67°08' E 013°59'0 0.0
2018-Jan-19 02:30N 67°08' E 013°59'0 0.0
2018-Jan-19 02:00N 67°08' E 013°59'0 0.0
2018-Jan-19 01:28N 67°08' E 013°59'0 0.0
2018-Jan-19 00:58N 67°08' E 013°59'0 0.0
2018-Jan-19 00:28N 67°08' E 013°59'0 0.0
2018-Jan-18 23:59N 67°08' E 013°59'0 0.0
2018-Jan-18 23:29N 67°08' E 013°59'0 0.0
2018-Jan-18 22:59N 67°08' E 013°59'0 0.0
2018-Jan-18 22:30N 67°08' E 013°59'0 0.0
2018-Jan-18 22:00N 67°08' E 013°59'0 0.0
2018-Jan-18 21:30N 67°08' E 013°59'0 0.0
2018-Jan-18 20:58N 67°08' E 013°59'0 0.0
2018-Jan-18 20:30N 67°08' E 013°59'3 6.3
2018-Jan-18 19:59N 67°05' E 014°01'1 2.1
2018-Jan-18 19:30N 67°05' E 014°03'3 6.0
2018-Jan-18 19:00N 67°07' E 013°59'2 3.9
2018-Jan-18 18:30N 67°05' E 013°59'2 4.0
2018-Jan-18 18:00N 67°05' E 014°04'2 4.2
2018-Jan-18 17:30N 67°06' E 013°59'3 5.2
2018-Jan-18 17:00N 67°08' E 013°59'0 0.0
2018-Jan-18 16:30N 67°08' E 013°59'0 0.1
2018-Jan-18 16:00N 67°08' E 013°59'3 6.6
2018-Jan-18 15:30N 67°05' E 014°02'1 2.0
2018-Jan-18 15:00N 67°04' E 014°04'1 1.9
2018-Jan-18 14:30N 67°05' E 014°02'3 6.8
2018-Jan-18 14:01N 67°08' E 013°59'0 0.2
2018-Jan-18 13:30N 67°08' E 013°59'0 0.0
2018-Jan-18 13:00N 67°08' E 013°59'0 0.0
2018-Jan-18 12:30N 67°08' E 013°59'0 0.0
2018-Jan-18 12:00N 67°08' E 013°59'3 6.0
2018-Jan-18 11:30N 67°05' E 014°00'2 3.1
2018-Jan-18 11:00N 67°05' E 014°04'2 4.5
2018-Jan-18 10:30N 67°06' E 014°01'2 3.7
2018-Jan-18 10:00N 67°08' E 013°59'0 0.0
2018-Jan-18 09:30N 67°08' E 013°59'0 0.0
2018-Jan-18 09:00N 67°08' E 013°59'2 4.0
2018-Jan-18 08:30N 67°06' E 013°59'3 5.6
2018-Jan-18 08:00N 67°04' E 014°04'0 0.1
2018-Jan-18 07:30N 67°04' E 014°04'0 0.0
2018-Jan-18 07:00N 67°04' E 014°04'1 2.0
2018-Jan-18 06:30N 67°05' E 014°02'3 6.9
2018-Jan-18 06:00N 67°08' E 013°59'0 0.2
2018-Jan-18 05:28N 67°08' E 013°59'0 0.0
2018-Jan-18 04:58N 67°08' E 013°59'0 0.0
2018-Jan-18 04:28N 67°08' E 013°59'0 0.0
2018-Jan-18 03:59N 67°08' E 013°59'0 0.0
2018-Jan-18 03:29N 67°08' E 013°59'0 0.0
2018-Jan-18 02:59N 67°08' E 013°59'0 0.0
2018-Jan-18 02:30N 67°08' E 013°59'0 0.0
2018-Jan-18 02:00N 67°08' E 013°59'0 0.0
2018-Jan-18 01:30N 67°08' E 013°59'0 0.0
2018-Jan-18 00:58N 67°08' E 013°59'0 0.0
2018-Jan-17 23:58N 67°08' E 013°59'0 0.1
2018-Jan-17 23:55N 67°08' E 013°59'  
2018-Jan-12 15:00N 67°04' E 014°04'1 2.0
2018-Jan-12 14:30N 67°05' E 014°02'3 7.0
2018-Jan-12 14:00N 67°08' E 013°59'0 0.0
2018-Jan-12 13:30N 67°08' E 013°59'0 0.0
2018-Jan-12 13:00N 67°08' E 013°59'0 0.0
2018-Jan-12 12:30N 67°08' E 013°59'0 0.0
2018-Jan-12 12:00N 67°08' E 013°59'3 6.5
2018-Jan-12 11:30N 67°05' E 014°03'1 1.4
2018-Jan-12 11:00N 67°05' E 014°04'3 5.2
2018-Jan-12 10:30N 67°06' E 013°59'2 3.8
2018-Jan-12 10:00N 67°08' E 013°59'0 0.0
2018-Jan-12 09:30N 67°08' E 013°59'0 0.0
2018-Jan-12 09:00N 67°08' E 013°59'2 4.6
2018-Jan-12 08:31N 67°06' E 013°59'3 4.9
2018-Jan-12 07:59N 67°04' E 014°04'0 0.0
2018-Jan-12 07:30N 67°04' E 014°04'0 0.0
2018-Jan-12 07:00N 67°04' E 014°04'1 2.1
2018-Jan-12 06:30N 67°05' E 014°02'3 6.9
2018-Jan-12 06:00N 67°08' E 013°59'0 0.0
2018-Jan-12 05:29N 67°08' E 013°59'0 0.0
2018-Jan-12 05:00N 67°08' E 013°59'0 0.0
2018-Jan-12 04:30N 67°08' E 013°59'0 0.0
2018-Jan-12 04:00N 67°08' E 013°59'0 0.0
2018-Jan-12 03:31N 67°08' E 013°59'0 0.0
2018-Jan-12 02:58N 67°08' E 013°59'0 0.0
2018-Jan-12 02:28N 67°08' E 013°59'0 0.0
2018-Jan-12 01:59N 67°08' E 013°59'0 0.0
2018-Jan-12 01:29N 67°08' E 013°59'0 0.0
2018-Jan-12 00:59N 67°08' E 013°59'0 0.0
2018-Jan-12 00:30N 67°08' E 013°59'0 0.0
2018-Jan-12 00:00N 67°08' E 013°59'0 0.0
2018-Jan-11 23:30N 67°08' E 013°59'0 0.0
2018-Jan-11 22:58N 67°08' E 013°59'0 0.0
2018-Jan-11 22:28N 67°08' E 013°59'0 0.0
2018-Jan-11 22:01N 67°08' E 013°59'0 0.0
2018-Jan-11 21:30N 67°08' E 013°59'0 0.0
2018-Jan-11 20:58N 67°08' E 013°59'0 0.0
2018-Jan-11 20:28N 67°08' E 013°59'3 6.2
2018-Jan-11 20:00N 67°05' E 013°60'2 3.7
2018-Jan-11 19:30N 67°05' E 014°04'3 6.3
2018-Jan-11 19:00N 67°07' E 013°59'1 2.0
2018-Jan-11 18:30N 67°06' E 013°59'3 5.1
2018-Jan-11 18:00N 67°04' E 014°04'2 4.7
2018-Jan-11 17:30N 67°06' E 013°59'3 5.1
2018-Jan-11 17:00N 67°08' E 013°59'0 0.0
2018-Jan-11 16:30N 67°08' E 013°59'0 0.4
2018-Jan-11 16:00N 67°08' E 013°58'3 6.3
2018-Jan-11 15:30N 67°05' E 014°03'1 2.2
2018-Jan-11 15:00N 67°04' E 014°04'1 1.9
2018-Jan-11 14:30N 67°05' E 014°02'3 7.0
2018-Jan-11 14:01N 67°08' E 013°59'0 0.1
2018-Jan-11 13:30N 67°08' E 013°59'0 0.0
2018-Jan-11 13:00N 67°08' E 013°59'0 0.0
2018-Jan-11 12:30N 67°08' E 013°59'0 0.0
2018-Jan-11 12:00N 67°08' E 013°59'3 6.0
2018-Jan-11 11:30N 67°05' E 014°00'1 2.7
2018-Jan-11 11:00N 67°05' E 014°04'2 4.9
2018-Jan-11 10:30N 67°06' E 013°59'2 3.9
2018-Jan-11 10:00N 67°08' E 013°59'0 0.0
2018-Jan-11 09:30N 67°08' E 013°59'0 0.0
2018-Jan-11 09:00N 67°08' E 013°59'2 3.9
2018-Jan-11 08:30N 67°06' E 013°59'3 5.5
2018-Jan-11 08:01N 67°04' E 014°04'0 0.0
2018-Jan-11 07:28N 67°04' E 014°04'0 0.0
2018-Jan-11 07:00N 67°04' E 014°04'1 2.2
2018-Jan-11 06:30N 67°05' E 014°02'3 6.9
2018-Jan-11 06:00N 67°08' E 013°59'0 0.0
2018-Jan-11 05:29N 67°08' E 013°59'0 0.0
2018-Jan-11 04:59N 67°08' E 013°59'0 0.0
2018-Jan-11 04:29N 67°08' E 013°59'0 0.0
2018-Jan-11 04:00N 67°08' E 013°59'0 0.0
2018-Jan-11 03:30N 67°08' E 013°59'0 0.0
2018-Jan-11 03:00N 67°08' E 013°59'0 0.0
2018-Jan-11 02:28N 67°08' E 013°59'0 0.0
2018-Jan-11 01:58N 67°08' E 013°59'0 0.0
2018-Jan-11 01:28N 67°08' E 013°59'0 0.0
2018-Jan-11 00:59N 67°08' E 013°59'0 0.0
2018-Jan-11 00:29N 67°08' E 013°59'0 0.0
2018-Jan-10 23:59N 67°08' E 013°59'0 0.0
2018-Jan-10 23:30N 67°08' E 013°59'0 0.0
2018-Jan-10 23:00N 67°08' E 013°59'0 0.0
2018-Jan-10 22:30N 67°08' E 013°59'0 0.0
2018-Jan-10 21:58N 67°08' E 013°59'0 0.0
2018-Jan-10 21:28N 67°08' E 013°59'0 0.0
2018-Jan-10 20:58N 67°08' E 013°59'0 0.0
2018-Jan-10 20:31N 67°08' E 013°59'3 6.7
2018-Jan-10 20:00N 67°05' E 014°01'1 2.1
2018-Jan-10 19:30N 67°05' E 014°04'3 5.8
2018-Jan-10 19:00N 67°07' E 013°59'0 0.9
2018-Jan-10 18:30N 67°07' E 013°59'3 5.9
2018-Jan-10 18:00N 67°04' E 014°04'2 4.7
2018-Jan-10 17:30N 67°06' E 013°59'3 5.1
2018-Jan-10 17:00N 67°08' E 013°59'0 0.0
2018-Jan-10 16:30N 67°08' E 013°59'0 0.0
2018-Jan-10 16:00N 67°08' E 013°59'3 6.5
2018-Jan-10 15:30N 67°05' E 014°03'1 2.1
2018-Jan-10 15:00N 67°04' E 014°04'1 2.0
2018-Jan-10 14:30N 67°05' E 014°02'4 7.0
2018-Jan-10 14:00N 67°08' E 013°59'0 0.0
2018-Jan-10 13:30N 67°08' E 013°59'  
Track history (hours):
 
Tides and Currents Weather Stations Pressure Air Temp Water Temp Dewpoint Dewpoint Depression Visibility Wind Speed Wind Dir Waves Ship Positions

Gildeskaal

Last reported at 2018-Jan-20 13:00 UTC. Time now 2018-Jan-20 13:19 UTC.
Position N 67°04' E 014°04'.

Length 52 m; draft 3.2 m.

Type: Ship. MMSI: 259680000.

Date/timePositionNaut miles runAvg speedWind from/ knotsBaromVisibWave heightAir tempDewpointWater temp
2018-Jan-20 13:00N 67°04' E 014°04'0 0.0
2018-Jan-20 12:30N 67°04' E 014°04'0 0.0
2018-Jan-20 12:00N 67°04' E 014°04'0 0.0
2018-Jan-20 11:30N 67°04' E 014°04'0 0.8
2018-Jan-20 11:00N 67°05' E 014°04'3 5.0
2018-Jan-20 10:30N 67°06' E 013°59'2 3.8
2018-Jan-20 10:00N 67°08' E 013°59'0 0.0
2018-Jan-20 09:30N 67°08' E 013°59'0 0.0
2018-Jan-20 09:00N 67°08' E 013°59'2 3.1
2018-Jan-20 08:30N 67°07' E 013°59'3 5.9
2018-Jan-20 07:59N 67°04' E 014°04'1 2.1
2018-Jan-20 07:30N 67°05' E 014°02'3 6.7
2018-Jan-20 07:00N 67°08' E 013°59'0 0.1
2018-Jan-20 06:29N 67°08' E 013°59'0 0.0
2018-Jan-20 06:00N 67°08' E 013°59'0 0.0
2018-Jan-20 05:30N 67°08' E 013°59'0 0.0
2018-Jan-20 05:00N 67°08' E 013°59'0 0.0
2018-Jan-20 04:28N 67°08' E 013°59'0 0.0
2018-Jan-20 03:58N 67°08' E 013°59'0 0.0
2018-Jan-20 03:29N 67°08' E 013°59'0 0.0
2018-Jan-20 02:59N 67°08' E 013°59'0 0.0
2018-Jan-20 02:29N 67°08' E 013°59'0 0.0
2018-Jan-20 02:00N 67°08' E 013°59'0 0.0
2018-Jan-20 01:30N 67°08' E 013°59'0 0.0
2018-Jan-20 01:00N 67°08' E 013°59'0 0.0
2018-Jan-20 00:31N 67°08' E 013°59'0 0.0
2018-Jan-19 23:58N 67°08' E 013°59'0 0.0
2018-Jan-19 23:25N 67°08' E 013°59'0 0.0
2018-Jan-19 22:59N 67°08' E 013°59'0 0.0
2018-Jan-19 22:29N 67°08' E 013°59'0 0.0
2018-Jan-19 21:59N 67°08' E 013°59'0 0.0
2018-Jan-19 21:30N 67°08' E 013°59'0 0.0
2018-Jan-19 21:00N 67°08' E 013°59'0 0.0
2018-Jan-19 20:30N 67°08' E 013°59'3 7.2
2018-Jan-19 20:00N 67°05' E 014°02'1 1.4
2018-Jan-19 19:30N 67°05' E 014°03'2 4.9
2018-Jan-19 19:00N 67°07' E 013°59'1 1.0
2018-Jan-19 18:30N 67°06' E 013°59'3 5.4
2018-Jan-19 18:00N 67°04' E 014°04'0 0.0
2018-Jan-19 17:30N 67°04' E 014°04'0 0.0
2018-Jan-19 17:00N 67°04' E 014°04'2 4.6
2018-Jan-19 16:30N 67°06' E 013°59'3 5.1
2018-Jan-19 16:00N 67°08' E 013°59'3 6.6
2018-Jan-19 15:29N 67°05' E 014°02'1 2.1
2018-Jan-19 15:00N 67°04' E 014°04'1 2.1
2018-Jan-19 14:31N 67°05' E 014°02'3 6.6
2018-Jan-19 14:00N 67°08' E 013°59'0 0.2
2018-Jan-19 13:30N 67°08' E 013°59'0 0.0
2018-Jan-19 13:01N 67°08' E 013°59'0 0.0
2018-Jan-19 12:31N 67°08' E 013°59'0 0.0
2018-Jan-19 12:00N 67°08' E 013°59'3 6.7
2018-Jan-19 11:30N 67°05' E 014°01'1 1.9
2018-Jan-19 11:00N 67°05' E 014°04'3 5.1
2018-Jan-19 10:29N 67°06' E 013°59'2 3.8
2018-Jan-19 10:00N 67°08' E 013°59'0 0.0
2018-Jan-19 09:30N 67°08' E 013°59'0 0.0
2018-Jan-19 09:01N 67°08' E 013°59'1 2.9
2018-Jan-19 08:31N 67°07' E 013°59'3 6.2
2018-Jan-19 08:00N 67°04' E 014°04'0 0.0
2018-Jan-19 07:30N 67°04' E 014°04'0 0.0
2018-Jan-19 07:00N 67°04' E 014°04'1 2.1
2018-Jan-19 06:30N 67°05' E 014°02'3 6.7
2018-Jan-19 06:00N 67°08' E 013°59'0 0.2
2018-Jan-19 05:28N 67°08' E 013°59'0 0.0
2018-Jan-19 04:58N 67°08' E 013°59'0 0.0
2018-Jan-19 04:29N 67°08' E 013°59'0 0.0
2018-Jan-19 03:59N 67°08' E 013°59'0 0.0
2018-Jan-19 03:29N 67°08' E 013°59'0 0.0
2018-Jan-19 03:00N 67°08' E 013°59'0 0.0
2018-Jan-19 02:30N 67°08' E 013°59'0 0.0
2018-Jan-19 02:00N 67°08' E 013°59'0 0.0
2018-Jan-19 01:28N 67°08' E 013°59'0 0.0
2018-Jan-19 00:58N 67°08' E 013°59'0 0.0
2018-Jan-19 00:28N 67°08' E 013°59'0 0.0
2018-Jan-18 23:59N 67°08' E 013°59'0 0.0
2018-Jan-18 23:29N 67°08' E 013°59'0 0.0
2018-Jan-18 22:59N 67°08' E 013°59'0 0.0
2018-Jan-18 22:30N 67°08' E 013°59'0 0.0
2018-Jan-18 22:00N 67°08' E 013°59'0 0.0
2018-Jan-18 21:30N 67°08' E 013°59'0 0.0
2018-Jan-18 20:58N 67°08' E 013°59'0 0.0
2018-Jan-18 20:30N 67°08' E 013°59'3 6.3
2018-Jan-18 19:59N 67°05' E 014°01'1 2.1
2018-Jan-18 19:30N 67°05' E 014°03'3 6.0
2018-Jan-18 19:00N 67°07' E 013°59'2 3.9
2018-Jan-18 18:30N 67°05' E 013°59'2 4.0
2018-Jan-18 18:00N 67°05' E 014°04'2 4.2
2018-Jan-18 17:30N 67°06' E 013°59'3 5.2
2018-Jan-18 17:00N 67°08' E 013°59'0 0.0
2018-Jan-18 16:30N 67°08' E 013°59'0 0.1
2018-Jan-18 16:00N 67°08' E 013°59'3 6.6
2018-Jan-18 15:30N 67°05' E 014°02'1 2.0
2018-Jan-18 15:00N 67°04' E 014°04'1 1.9
2018-Jan-18 14:30N 67°05' E 014°02'3 6.8
2018-Jan-18 14:01N 67°08' E 013°59'0 0.2
2018-Jan-18 13:30N 67°08' E 013°59'0 0.0
2018-Jan-18 13:00N 67°08' E 013°59'0 0.0
2018-Jan-18 12:30N 67°08' E 013°59'0 0.0
2018-Jan-18 12:00N 67°08' E 013°59'3 6.0
2018-Jan-18 11:30N 67°05' E 014°00'2 3.1
2018-Jan-18 11:00N 67°05' E 014°04'2 4.5
2018-Jan-18 10:30N 67°06' E 014°01'2 3.7
2018-Jan-18 10:00N 67°08' E 013°59'0 0.0
2018-Jan-18 09:30N 67°08' E 013°59'0 0.0
2018-Jan-18 09:00N 67°08' E 013°59'2 4.0
2018-Jan-18 08:30N 67°06' E 013°59'3 5.6
2018-Jan-18 08:00N 67°04' E 014°04'0 0.1
2018-Jan-18 07:30N 67°04' E 014°04'0 0.0
2018-Jan-18 07:00N 67°04' E 014°04'1 2.0
2018-Jan-18 06:30N 67°05' E 014°02'3 6.9
2018-Jan-18 06:00N 67°08' E 013°59'0 0.2
2018-Jan-18 05:28N 67°08' E 013°59'0 0.0
2018-Jan-18 04:58N 67°08' E 013°59'0 0.0
2018-Jan-18 04:28N 67°08' E 013°59'0 0.0
2018-Jan-18 03:59N 67°08' E 013°59'0 0.0
2018-Jan-18 03:29N 67°08' E 013°59'0 0.0
2018-Jan-18 02:59N 67°08' E 013°59'0 0.0
2018-Jan-18 02:30N 67°08' E 013°59'0 0.0
2018-Jan-18 02:00N 67°08' E 013°59'0 0.0
2018-Jan-18 01:30N 67°08' E 013°59'0 0.0
2018-Jan-18 00:58N 67°08' E 013°59'0 0.0
2018-Jan-17 23:58N 67°08' E 013°59'0 0.1
2018-Jan-17 23:55N 67°08' E 013°59'  
2018-Jan-12 15:00N 67°04' E 014°04'1 2.0
2018-Jan-12 14:30N 67°05' E 014°02'3 7.0
2018-Jan-12 14:00N 67°08' E 013°59'0 0.0
2018-Jan-12 13:30N 67°08' E 013°59'0 0.0
2018-Jan-12 13:00N 67°08' E 013°59'0 0.0
2018-Jan-12 12:30N 67°08' E 013°59'0 0.0
2018-Jan-12 12:00N 67°08' E 013°59'3 6.5
2018-Jan-12 11:30N 67°05' E 014°03'1 1.4
2018-Jan-12 11:00N 67°05' E 014°04'3 5.2
2018-Jan-12 10:30N 67°06' E 013°59'2 3.8
2018-Jan-12 10:00N 67°08' E 013°59'0 0.0
2018-Jan-12 09:30N 67°08' E 013°59'0 0.0
2018-Jan-12 09:00N 67°08' E 013°59'2 4.6
2018-Jan-12 08:31N 67°06' E 013°59'3 4.9
2018-Jan-12 07:59N 67°04' E 014°04'0 0.0
2018-Jan-12 07:30N 67°04' E 014°04'0 0.0
2018-Jan-12 07:00N 67°04' E 014°04'1 2.1
2018-Jan-12 06:30N 67°05' E 014°02'3 6.9
2018-Jan-12 06:00N 67°08' E 013°59'0 0.0
2018-Jan-12 05:29N 67°08' E 013°59'0 0.0
2018-Jan-12 05:00N 67°08' E 013°59'0 0.0
2018-Jan-12 04:30N 67°08' E 013°59'0 0.0
2018-Jan-12 04:00N 67°08' E 013°59'0 0.0
2018-Jan-12 03:31N 67°08' E 013°59'0 0.0
2018-Jan-12 02:58N 67°08' E 013°59'0 0.0
2018-Jan-12 02:28N 67°08' E 013°59'0 0.0
2018-Jan-12 01:59N 67°08' E 013°59'0 0.0
2018-Jan-12 01:29N 67°08' E 013°59'0 0.0
2018-Jan-12 00:59N 67°08' E 013°59'0 0.0
2018-Jan-12 00:30N 67°08' E 013°59'0 0.0
2018-Jan-12 00:00N 67°08' E 013°59'0 0.0
2018-Jan-11 23:30N 67°08' E 013°59'0 0.0
2018-Jan-11 22:58N 67°08' E 013°59'0 0.0
2018-Jan-11 22:28N 67°08' E 013°59'0 0.0
2018-Jan-11 22:01N 67°08' E 013°59'0 0.0
2018-Jan-11 21:30N 67°08' E 013°59'0 0.0
2018-Jan-11 20:58N 67°08' E 013°59'0 0.0
2018-Jan-11 20:28N 67°08' E 013°59'3 6.2
2018-Jan-11 20:00N 67°05' E 013°60'2 3.7
2018-Jan-11 19:30N 67°05' E 014°04'3 6.3
2018-Jan-11 19:00N 67°07' E 013°59'1 2.0
2018-Jan-11 18:30N 67°06' E 013°59'3 5.1
2018-Jan-11 18:00N 67°04' E 014°04'2 4.7
2018-Jan-11 17:30N 67°06' E 013°59'3 5.1
2018-Jan-11 17:00N 67°08' E 013°59'0 0.0
2018-Jan-11 16:30N 67°08' E 013°59'0 0.4
2018-Jan-11 16:00N 67°08' E 013°58'3 6.3
2018-Jan-11 15:30N 67°05' E 014°03'1 2.2
2018-Jan-11 15:00N 67°04' E 014°04'1 1.9
2018-Jan-11 14:30N 67°05' E 014°02'3 7.0
2018-Jan-11 14:01N 67°08' E 013°59'0 0.1
2018-Jan-11 13:30N 67°08' E 013°59'0 0.0
2018-Jan-11 13:00N 67°08' E 013°59'0 0.0
2018-Jan-11 12:30N 67°08' E 013°59'0 0.0
2018-Jan-11 12:00N 67°08' E 013°59'3 6.0
2018-Jan-11 11:30N 67°05' E 014°00'1 2.7
2018-Jan-11 11:00N 67°05' E 014°04'2 4.9
2018-Jan-11 10:30N 67°06' E 013°59'2 3.9
2018-Jan-11 10:00N 67°08' E 013°59'0 0.0
2018-Jan-11 09:30N 67°08' E 013°59'0 0.0
2018-Jan-11 09:00N 67°08' E 013°59'2 3.9
2018-Jan-11 08:30N 67°06' E 013°59'3 5.5
2018-Jan-11 08:01N 67°04' E 014°04'0 0.0
2018-Jan-11 07:28N 67°04' E 014°04'0 0.0
2018-Jan-11 07:00N 67°04' E 014°04'1 2.2
2018-Jan-11 06:30N 67°05' E 014°02'3 6.9
2018-Jan-11 06:00N 67°08' E 013°59'0 0.0
2018-Jan-11 05:29N 67°08' E 013°59'0 0.0
2018-Jan-11 04:59N 67°08' E 013°59'0 0.0
2018-Jan-11 04:29N 67°08' E 013°59'0 0.0
2018-Jan-11 04:00N 67°08' E 013°59'0 0.0
2018-Jan-11 03:30N 67°08' E 013°59'0 0.0
2018-Jan-11 03:00N 67°08' E 013°59'0 0.0
2018-Jan-11 02:28N 67°08' E 013°59'0 0.0
2018-Jan-11 01:58N 67°08' E 013°59'0 0.0
2018-Jan-11 01:28N 67°08' E 013°59'0 0.0
2018-Jan-11 00:59N 67°08' E 013°59'0 0.0
2018-Jan-11 00:29N 67°08' E 013°59'0 0.0
2018-Jan-10 23:59N 67°08' E 013°59'0 0.0
2018-Jan-10 23:30N 67°08' E 013°59'0 0.0
2018-Jan-10 23:00N 67°08' E 013°59'0 0.0
2018-Jan-10 22:30N 67°08' E 013°59'0 0.0
2018-Jan-10 21:58N 67°08' E 013°59'0 0.0
2018-Jan-10 21:28N 67°08' E 013°59'0 0.0
2018-Jan-10 20:58N 67°08' E 013°59'0 0.0
2018-Jan-10 20:31N 67°08' E 013°59'3 6.7
2018-Jan-10 20:00N 67°05' E 014°01'1 2.1
2018-Jan-10 19:30N 67°05' E 014°04'3 5.8
2018-Jan-10 19:00N 67°07' E 013°59'0 0.9
2018-Jan-10 18:30N 67°07' E 013°59'3 5.9
2018-Jan-10 18:00N 67°04' E 014°04'2 4.7
2018-Jan-10 17:30N 67°06' E 013°59'3 5.1
2018-Jan-10 17:00N 67°08' E 013°59'0 0.0
2018-Jan-10 16:30N 67°08' E 013°59'0 0.0
2018-Jan-10 16:00N 67°08' E 013°59'3 6.5
2018-Jan-10 15:30N 67°05' E 014°03'1 2.1
2018-Jan-10 15:00N 67°04' E 014°04'1 2.0
2018-Jan-10 14:30N 67°05' E 014°02'4 7.0
2018-Jan-10 14:00N 67°08' E 013°59'0 0.0
2018-Jan-10 13:30N 67°08' E 013°59'  

Dump ship's entire track history